sensor_id;sensor_type;location;lat;lon;timestamp;pressure;altitude;pressure_sealevel;temperature;humidity
43298;BME280;28892;55.640;37.532;2023-02-17T00:00:28;99484.59;;;-4.88;56.43
43298;BME280;28892;55.640;37.532;2023-02-17T00:02:55;99482.25;;;-5.11;57.12
43298;BME280;28892;55.640;37.532;2023-02-17T00:05:22;99488.03;;;-5.23;57.55
43298;BME280;28892;55.640;37.532;2023-02-17T00:07:47;99486.56;;;-5.11;57.25
43298;BME280;28892;55.640;37.532;2023-02-17T00:10:13;99484.53;;;-5.22;57.60
43298;BME280;28892;55.640;37.532;2023-02-17T00:12:39;99478.28;;;-5.18;57.80
43298;BME280;28892;55.640;37.532;2023-02-17T00:15:05;99477.66;;;-5.41;58.50
43298;BME280;28892;55.640;37.532;2023-02-17T00:17:31;99483.66;;;-5.23;58.68
43298;BME280;28892;55.640;37.532;2023-02-17T00:19:57;99484.50;;;-5.05;57.49
43298;BME280;28892;55.640;37.532;2023-02-17T00:22:23;99487.81;;;-4.83;56.79
43298;BME280;28892;55.640;37.532;2023-02-17T00:24:49;99487.28;;;-4.90;56.90
43298;BME280;28892;55.640;37.532;2023-02-17T00:27:15;99486.66;;;-4.95;57.44
43298;BME280;28892;55.640;37.532;2023-02-17T00:29:40;99483.94;;;-4.92;57.08
43298;BME280;28892;55.640;37.532;2023-02-17T00:32:06;99481.22;;;-5.43;58.09
43298;BME280;28892;55.640;37.532;2023-02-17T00:34:35;99487.88;;;-5.57;58.83
43298;BME280;28892;55.640;37.532;2023-02-17T00:37:00;99480.13;;;-5.57;59.30
43298;BME280;28892;55.640;37.532;2023-02-17T00:39:26;99470.19;;;-5.47;59.44
43298;BME280;28892;55.640;37.532;2023-02-17T00:42:08;99468.56;;;-5.13;58.62
43298;BME280;28892;55.640;37.532;2023-02-17T00:44:34;99464.91;;;-5.09;58.41
43298;BME280;28892;55.640;37.532;2023-02-17T00:47:00;99451.72;;;-5.04;58.04
43298;BME280;28892;55.640;37.532;2023-02-17T00:49:26;99460.16;;;-4.83;57.77
43298;BME280;28892;55.640;37.532;2023-02-17T00:51:52;99460.31;;;-4.68;56.31
43298;BME280;28892;55.640;37.532;2023-02-17T00:54:18;99444.19;;;-4.57;55.55
43298;BME280;28892;55.640;37.532;2023-02-17T00:56:44;99450.72;;;-4.66;55.81
43298;BME280;28892;55.640;37.532;2023-02-17T00:59:11;99443.81;;;-4.50;55.23
43298;BME280;28892;55.640;37.532;2023-02-17T01:01:38;99454.94;;;-4.47;55.23
43298;BME280;28892;55.640;37.532;2023-02-17T01:04:04;99458.06;;;-4.58;55.10
43298;BME280;28892;55.640;37.532;2023-02-17T01:06:32;99447.19;;;-4.65;55.77
43298;BME280;28892;55.640;37.532;2023-02-17T01:08:59;99447.81;;;-4.60;55.83
43298;BME280;28892;55.640;37.532;2023-02-17T01:11:28;99456.09;;;-4.53;55.60
43298;BME280;28892;55.640;37.532;2023-02-17T01:13:57;99458.03;;;-4.41;55.69
43298;BME280;28892;55.640;37.532;2023-02-17T01:16:28;99438.09;;;-4.23;54.74
43298;BME280;28892;55.640;37.532;2023-02-17T01:18:58;99449.00;;;-4.33;54.23
43298;BME280;28892;55.640;37.532;2023-02-17T01:21:26;99448.53;;;-4.24;54.19
43298;BME280;28892;55.640;37.532;2023-02-17T01:23:54;99443.19;;;-4.37;54.49
43298;BME280;28892;55.640;37.532;2023-02-17T01:26:22;99454.88;;;-4.30;54.39
43298;BME280;28892;55.640;37.532;2023-02-17T01:28:50;99438.66;;;-4.50;54.65
43298;BME280;28892;55.640;37.532;2023-02-17T01:31:17;99442.75;;;-4.45;54.95
43298;BME280;28892;55.640;37.532;2023-02-17T01:33:43;99447.00;;;-4.44;55.33
43298;BME280;28892;55.640;37.532;2023-02-17T01:36:11;99439.25;;;-4.28;54.80
43298;BME280;28892;55.640;37.532;2023-02-17T01:38:38;99444.47;;;-4.46;54.13
43298;BME280;28892;55.640;37.532;2023-02-17T01:41:05;99449.84;;;-4.33;55.00
43298;BME280;28892;55.640;37.532;2023-02-17T01:43:34;99459.41;;;-4.17;54.22
43298;BME280;28892;55.640;37.532;2023-02-17T01:46:03;99433.16;;;-4.11;53.83
43298;BME280;28892;55.640;37.532;2023-02-17T01:48:37;99449.81;;;-3.99;53.55
43298;BME280;28892;55.640;37.532;2023-02-17T01:51:12;99443.78;;;-4.16;53.77
43298;BME280;28892;55.640;37.532;2023-02-17T01:53:41;99448.22;;;-4.18;53.82
43298;BME280;28892;55.640;37.532;2023-02-17T01:56:09;99450.22;;;-4.07;53.55
43298;BME280;28892;55.640;37.532;2023-02-17T01:58:39;99444.44;;;-4.28;54.02
43298;BME280;28892;55.640;37.532;2023-02-17T02:01:07;99445.44;;;-4.15;53.98
43298;BME280;28892;55.640;37.532;2023-02-17T02:03:35;99452.06;;;-4.09;54.01
43298;BME280;28892;55.640;37.532;2023-02-17T02:06:06;99452.91;;;-4.09;53.76
43298;BME280;28892;55.640;37.532;2023-02-17T02:08:42;99456.56;;;-4.13;54.12
43298;BME280;28892;55.640;37.532;2023-02-17T02:11:12;99451.97;;;-4.24;54.19
43298;BME280;28892;55.640;37.532;2023-02-17T02:13:38;99451.13;;;-4.24;54.71
43298;BME280;28892;55.640;37.532;2023-02-17T02:16:44;99459.56;;;-4.21;54.79
43298;BME280;28892;55.640;37.532;2023-02-17T02:21:56;99447.44;;;-4.36;55.39
43298;BME280;28892;55.640;37.532;2023-02-17T02:29:55;99458.97;;;-4.42;56.60
43298;BME280;28892;55.640;37.532;2023-02-17T02:32:39;99450.69;;;-4.49;57.02
43298;BME280;28892;55.640;37.532;2023-02-17T02:37:48;99452.06;;;-4.59;57.71
43298;BME280;28892;55.640;37.532;2023-02-17T02:40:19;99454.03;;;-4.46;57.25
43298;BME280;28892;55.640;37.532;2023-02-17T02:42:47;99455.06;;;-4.51;57.01
43298;BME280;28892;55.640;37.532;2023-02-17T02:45:17;99450.91;;;-4.53;57.52
43298;BME280;28892;55.640;37.532;2023-02-17T02:47:45;99455.84;;;-4.49;57.34
43298;BME280;28892;55.640;37.532;2023-02-17T03:01:17;99467.44;;;-5.81;62.14
43298;BME280;28892;55.640;37.532;2023-02-17T03:04:05;99463.81;;;-5.96;62.61
43298;BME280;28892;55.640;37.532;2023-02-17T03:06:44;99464.81;;;-5.98;63.00
43298;BME280;28892;55.640;37.532;2023-02-17T03:09:18;99461.31;;;-5.78;63.00
43298;BME280;28892;55.640;37.532;2023-02-17T03:11:46;99447.00;;;-5.85;62.26
43298;BME280;28892;55.640;37.532;2023-02-17T03:14:15;99463.09;;;-5.61;62.33
43298;BME280;28892;55.640;37.532;2023-02-17T03:16:43;99458.00;;;-5.63;61.73
43298;BME280;28892;55.640;37.532;2023-02-17T03:19:10;99442.63;;;-5.66;61.93
43298;BME280;28892;55.640;37.532;2023-02-17T03:24:23;99457.81;;;-5.77;62.10
43298;BME280;28892;55.640;37.532;2023-02-17T03:26:49;99455.28;;;-5.79;62.42
43298;BME280;28892;55.640;37.532;2023-02-17T03:29:15;99447.16;;;-5.52;62.06
43298;BME280;28892;55.640;37.532;2023-02-17T03:31:41;99436.06;;;-5.36;61.32
43298;BME280;28892;55.640;37.532;2023-02-17T03:34:07;99443.97;;;-5.22;60.80
43298;BME280;28892;55.640;37.532;2023-02-17T03:36:34;99434.16;;;-5.33;60.71
43298;BME280;28892;55.640;37.532;2023-02-17T03:39:00;99438.34;;;-5.30;60.64
43298;BME280;28892;55.640;37.532;2023-02-17T03:41:26;99442.28;;;-5.23;60.54
43298;BME280;28892;55.640;37.532;2023-02-17T03:43:52;99441.09;;;-5.15;60.63
43298;BME280;28892;55.640;37.532;2023-02-17T03:46:17;99443.66;;;-5.15;60.60
43298;BME280;28892;55.640;37.532;2023-02-17T03:48:43;99446.78;;;-5.09;60.58
43298;BME280;28892;55.640;37.532;2023-02-17T03:51:11;99437.72;;;-5.00;60.28
43298;BME280;28892;55.640;37.532;2023-02-17T03:53:38;99446.56;;;-4.86;60.42
43298;BME280;28892;55.640;37.532;2023-02-17T03:56:04;99442.88;;;-4.65;59.42
43298;BME280;28892;55.640;37.532;2023-02-17T03:58:29;99442.22;;;-4.52;58.71
43298;BME280;28892;55.640;37.532;2023-02-17T04:00:55;99444.25;;;-4.41;58.12
43298;BME280;28892;55.640;37.532;2023-02-17T04:03:21;99434.94;;;-4.28;57.10
43298;BME280;28892;55.640;37.532;2023-02-17T04:05:46;99446.09;;;-4.27;56.93
43298;BME280;28892;55.640;37.532;2023-02-17T04:08:15;99448.25;;;-4.36;57.16
43298;BME280;28892;55.640;37.532;2023-02-17T04:10:41;99441.25;;;-4.33;57.12
43298;BME280;28892;55.640;37.532;2023-02-17T04:13:07;99442.97;;;-4.50;57.34
43298;BME280;28892;55.640;37.532;2023-02-17T04:15:32;99449.06;;;-4.51;57.65
43298;BME280;28892;55.640;37.532;2023-02-17T04:17:58;99451.94;;;-4.73;57.94
43298;BME280;28892;55.640;37.532;2023-02-17T04:20:24;99451.25;;;-4.77;58.15
43298;BME280;28892;55.640;37.532;2023-02-17T04:22:49;99450.25;;;-4.74;57.95
43298;BME280;28892;55.640;37.532;2023-02-17T04:25:15;99443.34;;;-4.74;57.88
43298;BME280;28892;55.640;37.532;2023-02-17T04:27:41;99441.50;;;-4.72;58.21
43298;BME280;28892;55.640;37.532;2023-02-17T04:30:07;99439.09;;;-4.93;58.55
43298;BME280;28892;55.640;37.532;2023-02-17T04:32:33;99445.25;;;-4.95;58.89
43298;BME280;28892;55.640;37.532;2023-02-17T04:34:59;99442.13;;;-5.02;58.98
43298;BME280;28892;55.640;37.532;2023-02-17T04:37:24;99457.50;;;-4.99;58.75
43298;BME280;28892;55.640;37.532;2023-02-17T04:39:50;99447.94;;;-5.14;59.15
43298;BME280;28892;55.640;37.532;2023-02-17T04:42:16;99444.66;;;-5.18;59.63
43298;BME280;28892;55.640;37.532;2023-02-17T04:44:41;99453.16;;;-5.16;59.58
43298;BME280;28892;55.640;37.532;2023-02-17T04:47:07;99450.75;;;-5.19;59.82
43298;BME280;28892;55.640;37.532;2023-02-17T04:49:33;99459.25;;;-5.17;59.93
43298;BME280;28892;55.640;37.532;2023-02-17T04:51:58;99454.31;;;-5.22;60.15
43298;BME280;28892;55.640;37.532;2023-02-17T04:54:24;99457.00;;;-5.23;60.05
43298;BME280;28892;55.640;37.532;2023-02-17T04:56:50;99464.97;;;-5.10;60.33
43298;BME280;28892;55.640;37.532;2023-02-17T04:59:15;99463.59;;;-5.00;60.10
43298;BME280;28892;55.640;37.532;2023-02-17T05:01:41;99453.25;;;-5.00;60.40
43298;BME280;28892;55.640;37.532;2023-02-17T05:04:07;99449.34;;;-4.73;59.33
43298;BME280;28892;55.640;37.532;2023-02-17T05:06:33;99454.97;;;-4.65;58.92
43298;BME280;28892;55.640;37.532;2023-02-17T05:08:58;99451.25;;;-4.77;58.90
43298;BME280;28892;55.640;37.532;2023-02-17T05:11:27;99450.66;;;-4.82;59.61
43298;BME280;28892;55.640;37.532;2023-02-17T05:13:52;99449.91;;;-4.84;60.05
43298;BME280;28892;55.640;37.532;2023-02-17T05:16:18;99445.00;;;-4.73;59.79
43298;BME280;28892;55.640;37.532;2023-02-17T05:18:44;99457.31;;;-4.60;59.41
43298;BME280;28892;55.640;37.532;2023-02-17T05:21:09;99448.88;;;-4.64;59.09
43298;BME280;28892;55.640;37.532;2023-02-17T05:23:35;99454.31;;;-4.53;59.27
43298;BME280;28892;55.640;37.532;2023-02-17T05:26:09;99451.59;;;-4.33;59.17
43298;BME280;28892;55.640;37.532;2023-02-17T05:28:35;99460.91;;;-4.29;58.38
43298;BME280;28892;55.640;37.532;2023-02-17T05:31:03;99451.97;;;-4.24;57.97
43298;BME280;28892;55.640;37.532;2023-02-17T05:33:29;99445.94;;;-4.24;57.59
43298;BME280;28892;55.640;37.532;2023-02-17T05:35:55;99449.94;;;-4.18;57.73
43298;BME280;28892;55.640;37.532;2023-02-17T05:38:23;99451.72;;;-4.19;57.53
43298;BME280;28892;55.640;37.532;2023-02-17T05:40:51;99458.41;;;-4.15;57.83
43298;BME280;28892;55.640;37.532;2023-02-17T05:43:17;99453.31;;;-4.16;57.72
43298;BME280;28892;55.640;37.532;2023-02-17T05:45:42;99450.50;;;-4.12;57.92
43298;BME280;28892;55.640;37.532;2023-02-17T05:48:08;99456.50;;;-3.79;57.30
43298;BME280;28892;55.640;37.532;2023-02-17T05:50:34;99448.97;;;-4.00;57.26
43298;BME280;28892;55.640;37.532;2023-02-17T05:53:02;99447.13;;;-3.98;57.06
43298;BME280;28892;55.640;37.532;2023-02-17T05:55:31;99454.66;;;-4.09;57.37
43298;BME280;28892;55.640;37.532;2023-02-17T05:57:57;99462.00;;;-4.01;57.18
43298;BME280;28892;55.640;37.532;2023-02-17T06:00:25;99465.19;;;-3.96;57.65
43298;BME280;28892;55.640;37.532;2023-02-17T06:02:51;99470.56;;;-3.99;57.63
43298;BME280;28892;55.640;37.532;2023-02-17T06:05:17;99470.13;;;-4.08;58.10
43298;BME280;28892;55.640;37.532;2023-02-17T06:07:42;99473.03;;;-3.98;57.93
43298;BME280;28892;55.640;37.532;2023-02-17T06:10:09;99475.72;;;-3.99;57.62
43298;BME280;28892;55.640;37.532;2023-02-17T06:12:35;99470.38;;;-3.96;57.83
43298;BME280;28892;55.640;37.532;2023-02-17T06:15:01;99468.94;;;-4.02;58.43
43298;BME280;28892;55.640;37.532;2023-02-17T06:17:29;99467.28;;;-4.03;58.41
43298;BME280;28892;55.640;37.532;2023-02-17T06:19:55;99477.72;;;-3.88;58.01
43298;BME280;28892;55.640;37.532;2023-02-17T06:22:21;99474.41;;;-3.90;58.21
43298;BME280;28892;55.640;37.532;2023-02-17T06:24:47;99468.47;;;-3.93;58.15
43298;BME280;28892;55.640;37.532;2023-02-17T06:27:13;99478.41;;;-3.85;58.07
43298;BME280;28892;55.640;37.532;2023-02-17T06:29:38;99477.91;;;-3.75;57.90
43298;BME280;28892;55.640;37.532;2023-02-17T06:32:04;99468.03;;;-4.01;58.08
43298;BME280;28892;55.640;37.532;2023-02-17T06:34:30;99477.47;;;-4.16;58.73
43298;BME280;28892;55.640;37.532;2023-02-17T06:36:59;99475.34;;;-4.25;59.45
43298;BME280;28892;55.640;37.532;2023-02-17T06:39:32;99465.25;;;-3.98;59.52
43298;BME280;28892;55.640;37.532;2023-02-17T06:42:01;99455.16;;;-3.70;57.94
43298;BME280;28892;55.640;37.532;2023-02-17T06:44:30;99474.13;;;-3.54;57.25
43298;BME280;28892;55.640;37.532;2023-02-17T06:46:56;99470.69;;;-3.70;57.24
43298;BME280;28892;55.640;37.532;2023-02-17T06:49:24;99478.47;;;-3.70;57.56
43298;BME280;28892;55.640;37.532;2023-02-17T06:51:52;99469.63;;;-3.66;57.89
43298;BME280;28892;55.640;37.532;2023-02-17T06:54:18;99465.50;;;-3.70;57.63
43298;BME280;28892;55.640;37.532;2023-02-17T06:56:44;99470.56;;;-3.67;57.97
43298;BME280;28892;55.640;37.532;2023-02-17T06:59:10;99471.47;;;-3.52;57.71
43298;BME280;28892;55.640;37.532;2023-02-17T07:01:38;99466.66;;;-3.44;57.92
43298;BME280;28892;55.640;37.532;2023-02-17T07:04:06;99460.03;;;-3.33;57.33
43298;BME280;28892;55.640;37.532;2023-02-17T07:06:36;99466.06;;;-3.02;57.00
43298;BME280;28892;55.640;37.532;2023-02-17T07:09:02;99448.88;;;-3.19;57.01
43298;BME280;28892;55.640;37.532;2023-02-17T07:11:28;99465.09;;;-3.16;57.44
43298;BME280;28892;55.640;37.532;2023-02-17T07:14:03;99460.78;;;-3.31;58.35
43298;BME280;28892;55.640;37.532;2023-02-17T07:16:33;99455.22;;;-3.56;58.54
43298;BME280;28892;55.640;37.532;2023-02-17T07:19:02;99462.22;;;-3.42;58.16
43298;BME280;28892;55.640;37.532;2023-02-17T07:21:28;99456.13;;;-3.41;58.67
43298;BME280;28892;55.640;37.532;2023-02-17T07:23:54;99465.25;;;-3.03;56.98
43298;BME280;28892;55.640;37.532;2023-02-17T07:26:20;99459.59;;;-3.26;57.30
43298;BME280;28892;55.640;37.532;2023-02-17T07:28:48;99460.63;;;-3.28;57.54
43298;BME280;28892;55.640;37.532;2023-02-17T07:31:15;99451.16;;;-2.99;56.66
43298;BME280;28892;55.640;37.532;2023-02-17T07:33:45;99465.31;;;-3.04;55.95
43298;BME280;28892;55.640;37.532;2023-02-17T07:36:14;99461.13;;;-3.07;55.66
43298;BME280;28892;55.640;37.532;2023-02-17T07:38:43;99448.69;;;-3.16;55.49
43298;BME280;28892;55.640;37.532;2023-02-17T07:41:14;99470.50;;;-3.04;55.22
43298;BME280;28892;55.640;37.532;2023-02-17T07:43:41;99455.50;;;-3.30;55.25
43298;BME280;28892;55.640;37.532;2023-02-17T07:46:09;99462.47;;;-3.30;55.40
43298;BME280;28892;55.640;37.532;2023-02-17T07:48:37;99465.34;;;-3.51;56.27
43298;BME280;28892;55.640;37.532;2023-02-17T07:51:07;99468.06;;;-3.38;56.37
43298;BME280;28892;55.640;37.532;2023-02-17T07:53:37;99450.41;;;-3.31;56.57
43298;BME280;28892;55.640;37.532;2023-02-17T07:56:23;99448.16;;;-3.07;56.14
43298;BME280;28892;55.640;37.532;2023-02-17T07:58:53;99463.38;;;-3.01;55.33
43298;BME280;28892;55.640;37.532;2023-02-17T08:01:21;99458.28;;;-2.88;55.41
43298;BME280;28892;55.640;37.532;2023-02-17T08:03:48;99444.03;;;-2.95;54.89
43298;BME280;28892;55.640;37.532;2023-02-17T08:06:20;99461.47;;;-2.83;55.13
43298;BME280;28892;55.640;37.532;2023-02-17T08:08:54;99452.53;;;-3.07;55.22
43298;BME280;28892;55.640;37.532;2023-02-17T08:11:39;99454.22;;;-3.85;56.28
43298;BME280;28892;55.640;37.532;2023-02-17T08:14:29;99454.88;;;-3.66;57.16
43298;BME280;28892;55.640;37.532;2023-02-17T08:17:05;99448.88;;;-3.50;56.78
43298;BME280;28892;55.640;37.532;2023-02-17T08:19:34;99438.06;;;-3.42;56.85
43298;BME280;28892;55.640;37.532;2023-02-17T08:22:00;99444.34;;;-3.16;55.82
43298;BME280;28892;55.640;37.532;2023-02-17T08:24:33;99441.16;;;-3.21;55.76
43298;BME280;28892;55.640;37.532;2023-02-17T08:27:18;99442.88;;;-3.36;56.53
43298;BME280;28892;55.640;37.532;2023-02-17T08:29:44;99455.25;;;-3.72;57.28
43298;BME280;28892;55.640;37.532;2023-02-17T08:32:15;99454.56;;;-3.75;57.80
43298;BME280;28892;55.640;37.532;2023-02-17T08:34:43;99451.56;;;-4.16;58.26
43298;BME280;28892;55.640;37.532;2023-02-17T08:37:11;99450.13;;;-4.55;60.06
43298;BME280;28892;55.640;37.532;2023-02-17T08:39:40;99450.00;;;-4.52;60.47
43298;BME280;28892;55.640;37.532;2023-02-17T08:42:08;99436.09;;;-4.01;58.75
43298;BME280;28892;55.640;37.532;2023-02-17T08:44:36;99437.50;;;-3.80;58.05
43298;BME280;28892;55.640;37.532;2023-02-17T08:47:03;99434.00;;;-3.79;57.38
43298;BME280;28892;55.640;37.532;2023-02-17T08:49:33;99442.03;;;-3.99;58.08
43298;BME280;28892;55.640;37.532;2023-02-17T08:51:59;99439.00;;;-4.40;59.51
43298;BME280;28892;55.640;37.532;2023-02-17T08:54:37;99435.69;;;-4.59;60.34
43298;BME280;28892;55.640;37.532;2023-02-17T08:57:06;99444.69;;;-4.33;59.83
43298;BME280;28892;55.640;37.532;2023-02-17T08:59:34;99435.91;;;-4.46;60.18
43298;BME280;28892;55.640;37.532;2023-02-17T09:02:06;99435.75;;;-4.27;59.46
43298;BME280;28892;55.640;37.532;2023-02-17T09:04:31;99427.13;;;-4.44;60.20
43298;BME280;28892;55.640;37.532;2023-02-17T09:06:57;99445.34;;;-4.45;59.66
43298;BME280;28892;55.640;37.532;2023-02-17T09:09:25;99433.22;;;-4.29;59.39
43298;BME280;28892;55.640;37.532;2023-02-17T09:11:57;99436.69;;;-4.12;59.31
43298;BME280;28892;55.640;37.532;2023-02-17T09:14:23;99447.28;;;-4.33;59.97
43298;BME280;28892;55.640;37.532;2023-02-17T09:16:50;99439.34;;;-3.98;59.17
43298;BME280;28892;55.640;37.532;2023-02-17T09:19:17;99455.31;;;-3.57;58.80
43298;BME280;28892;55.640;37.532;2023-02-17T09:21:43;99441.13;;;-3.35;57.44
43298;BME280;28892;55.640;37.532;2023-02-17T09:24:09;99444.25;;;-3.45;57.42
43298;BME280;28892;55.640;37.532;2023-02-17T09:26:38;99442.78;;;-3.34;57.47
43298;BME280;28892;55.640;37.532;2023-02-17T09:29:04;99435.47;;;-3.42;57.68
43298;BME280;28892;55.640;37.532;2023-02-17T09:31:30;99436.44;;;-3.91;58.74
43298;BME280;28892;55.640;37.532;2023-02-17T09:33:57;99427.75;;;-4.07;59.15
43298;BME280;28892;55.640;37.532;2023-02-17T09:36:28;99433.34;;;-4.14;59.98
43298;BME280;28892;55.640;37.532;2023-02-17T09:38:58;99428.97;;;-4.14;59.70
43298;BME280;28892;55.640;37.532;2023-02-17T09:41:37;99431.06;;;-3.88;59.99
43298;BME280;28892;55.640;37.532;2023-02-17T09:44:11;99443.53;;;-3.79;60.13
43298;BME280;28892;55.640;37.532;2023-02-17T09:46:46;99423.81;;;-3.98;60.46
43298;BME280;28892;55.640;37.532;2023-02-17T09:49:17;99413.78;;;-3.88;59.94
43298;BME280;28892;55.640;37.532;2023-02-17T09:54:42;99415.59;;;-3.27;58.00
43298;BME280;28892;55.640;37.532;2023-02-17T09:57:14;99416.16;;;-3.53;58.54
43298;BME280;28892;55.640;37.532;2023-02-17T09:59:55;99416.28;;;-3.40;57.78
43298;BME280;28892;55.640;37.532;2023-02-17T10:02:34;99409.03;;;-3.18;57.49
43298;BME280;28892;55.640;37.532;2023-02-17T10:05:07;99418.66;;;-2.75;55.40
43298;BME280;28892;55.640;37.532;2023-02-17T10:07:39;99400.44;;;-3.04;55.44
43298;BME280;28892;55.640;37.532;2023-02-17T10:10:13;99414.75;;;-3.28;55.87
43298;BME280;28892;55.640;37.532;2023-02-17T10:12:43;99405.41;;;-3.16;56.31
43298;BME280;28892;55.640;37.532;2023-02-17T10:15:13;99412.38;;;-3.47;56.73
43298;BME280;28892;55.640;37.532;2023-02-17T10:17:54;99402.59;;;-3.58;57.17
43298;BME280;28892;55.640;37.532;2023-02-17T10:21:06;99401.63;;;-3.71;57.24
43298;BME280;28892;55.640;37.532;2023-02-17T10:23:26;99399.41;;;-3.47;57.07
43298;BME280;28892;55.640;37.532;2023-02-17T10:28:54;99400.44;;;-3.66;57.43
43298;BME280;28892;55.640;37.532;2023-02-17T10:34:01;99393.34;;;-3.78;57.68
43298;BME280;28892;55.640;37.532;2023-02-17T10:39:34;99374.28;;;-3.77;58.45
43298;BME280;28892;55.640;37.532;2023-02-17T10:42:04;99371.84;;;-3.64;58.01
43298;BME280;28892;55.640;37.532;2023-02-17T10:44:33;99372.41;;;-3.59;57.94
43298;BME280;28892;55.640;37.532;2023-02-17T10:47:02;99378.88;;;-3.21;57.37
43298;BME280;28892;55.640;37.532;2023-02-17T10:49:35;99366.09;;;-3.39;57.16
43298;BME280;28892;55.640;37.532;2023-02-17T10:52:17;99368.09;;;-3.44;57.79
43298;BME280;28892;55.640;37.532;2023-02-17T10:57:16;99378.00;;;-2.76;56.34
43298;BME280;28892;55.640;37.532;2023-02-17T10:59:45;99369.50;;;-2.64;55.41
43298;BME280;28892;55.640;37.532;2023-02-17T11:02:21;99363.53;;;-2.81;55.50
43298;BME280;28892;55.640;37.532;2023-02-17T11:04:51;99370.41;;;-2.94;56.05
43298;BME280;28892;55.640;37.532;2023-02-17T11:07:32;99372.72;;;-2.89;56.18
43298;BME280;28892;55.640;37.532;2023-02-17T11:10:00;99356.97;;;-3.01;56.12
43298;BME280;28892;55.640;37.532;2023-02-17T11:12:40;99363.53;;;-2.81;56.21
43298;BME280;28892;55.640;37.532;2023-02-17T11:15:21;99360.66;;;-3.19;56.72
43298;BME280;28892;55.640;37.532;2023-02-17T11:17:48;99359.03;;;-3.37;57.28
43298;BME280;28892;55.640;37.532;2023-02-17T11:22:45;99350.75;;;-3.13;57.69
43298;BME280;28892;55.640;37.532;2023-02-17T11:25:23;99347.31;;;-2.70;57.13
43298;BME280;28892;55.640;37.532;2023-02-17T11:27:56;99363.16;;;-3.03;56.63
43298;BME280;28892;55.640;37.532;2023-02-17T11:30:24;99351.06;;;-3.48;57.18
43298;BME280;28892;55.640;37.532;2023-02-17T11:32:53;99342.78;;;-3.55;57.70
43298;BME280;28892;55.640;37.532;2023-02-17T11:38:20;99332.03;;;-3.63;58.35
43298;BME280;28892;55.640;37.532;2023-02-17T11:40:58;99355.66;;;-3.84;59.44
43298;BME280;28892;55.640;37.532;2023-02-17T11:43:25;99349.50;;;-4.13;59.73
43298;BME280;28892;55.640;37.532;2023-02-17T12:08:21;99325.25;;;-3.96;58.77
43298;BME280;28892;55.640;37.532;2023-02-17T12:11:03;99325.69;;;-4.04;59.76
43298;BME280;28892;55.640;37.532;2023-02-17T12:36:00;99310.94;;;-3.87;59.84
43298;BME280;28892;55.640;37.532;2023-02-17T12:41:17;99325.97;;;-3.33;57.82
43298;BME280;28892;55.640;37.532;2023-02-17T12:43:49;99320.59;;;-3.30;57.92
43298;BME280;28892;55.640;37.532;2023-02-17T12:46:37;99325.56;;;-3.56;58.18
43298;BME280;28892;55.640;37.532;2023-02-17T12:49:24;99316.34;;;-3.76;59.06
43298;BME280;28892;55.640;37.532;2023-02-17T12:51:56;99311.81;;;-3.72;59.50
43298;BME280;28892;55.640;37.532;2023-02-17T12:54:33;99324.69;;;-3.71;59.39
43298;BME280;28892;55.640;37.532;2023-02-17T12:57:16;99320.59;;;-3.30;58.61
43298;BME280;28892;55.640;37.532;2023-02-17T12:59:45;99332.38;;;-3.39;58.70
43298;BME280;28892;55.640;37.532;2023-02-17T13:02:20;99313.47;;;-3.12;58.41
43298;BME280;28892;55.640;37.532;2023-02-17T13:04:50;99314.13;;;-2.93;56.97
43298;BME280;28892;55.640;37.532;2023-02-17T13:07:38;99309.28;;;-2.56;56.36
43298;BME280;28892;55.640;37.532;2023-02-17T13:10:06;99303.44;;;-2.60;55.46
43298;BME280;28892;55.640;37.532;2023-02-17T13:12:42;99306.53;;;-3.11;57.02
43298;BME280;28892;55.640;37.532;2023-02-17T13:15:28;99310.13;;;-2.99;57.55
43298;BME280;28892;55.640;37.532;2023-02-17T13:17:58;99318.13;;;-3.62;58.39
43298;BME280;28892;55.640;37.532;2023-02-17T13:20:39;99314.13;;;-3.23;58.36
43298;BME280;28892;55.640;37.532;2023-02-17T13:23:13;99300.19;;;-3.36;58.34
43298;BME280;28892;55.640;37.532;2023-02-17T13:26:05;99307.97;;;-3.51;58.82
43298;BME280;28892;55.640;37.532;2023-02-17T13:28:35;99311.56;;;-3.53;58.95
43298;BME280;28892;55.640;37.532;2023-02-17T13:31:21;99313.50;;;-3.87;59.43
43298;BME280;28892;55.640;37.532;2023-02-17T13:33:55;99306.16;;;-3.79;59.42
43298;BME280;28892;55.640;37.532;2023-02-17T13:36:48;99293.25;;;-3.81;59.33
43298;BME280;28892;55.640;37.532;2023-02-17T13:41:57;99298.94;;;-4.04;59.46
43298;BME280;28892;55.640;37.532;2023-02-17T13:44:39;99293.84;;;-4.06;59.64
43298;BME280;28892;55.640;37.532;2023-02-17T13:47:18;99292.59;;;-4.15;59.66
43298;BME280;28892;55.640;37.532;2023-02-17T13:50:00;99286.31;;;-3.95;59.73
43298;BME280;28892;55.640;37.532;2023-02-17T13:52:29;99270.38;;;-3.88;58.95
43298;BME280;28892;55.640;37.532;2023-02-17T13:55:20;99285.59;;;-3.08;57.33
43298;BME280;28892;55.640;37.532;2023-02-17T13:57:57;99273.16;;;-3.17;56.92
43298;BME280;28892;55.640;37.532;2023-02-17T14:00:32;99282.63;;;-3.45;57.49
43298;BME280;28892;55.640;37.532;2023-02-17T14:03:19;99277.88;;;-3.98;58.89
43298;BME280;28892;55.640;37.532;2023-02-17T14:05:46;99279.50;;;-4.28;60.70
43298;BME280;28892;55.640;37.532;2023-02-17T14:08:34;99281.78;;;-4.07;59.93
43298;BME280;28892;55.640;37.532;2023-02-17T14:11:25;99268.69;;;-4.04;60.09
43298;BME280;28892;55.640;37.532;2023-02-17T14:13:54;99271.13;;;-3.86;58.58
43298;BME280;28892;55.640;37.532;2023-02-17T14:16:34;99280.22;;;-3.79;58.77
43298;BME280;28892;55.640;37.532;2023-02-17T14:19:09;99272.31;;;-3.61;58.22
43298;BME280;28892;55.640;37.532;2023-02-17T14:24:35;99267.50;;;-3.98;59.11
43298;BME280;28892;55.640;37.532;2023-02-17T14:27:03;99273.13;;;-4.06;59.12
43298;BME280;28892;55.640;37.532;2023-02-17T14:32:05;99266.06;;;-3.88;58.53
43298;BME280;28892;55.640;37.532;2023-02-17T14:34:33;99264.47;;;-4.37;59.74
43298;BME280;28892;55.640;37.532;2023-02-17T14:37:26;99273.19;;;-3.77;59.02
43298;BME280;28892;55.640;37.532;2023-02-17T14:39:52;99265.09;;;-4.17;58.75
43298;BME280;28892;55.640;37.532;2023-02-17T14:42:18;99260.94;;;-4.20;58.93
43298;BME280;28892;55.640;37.532;2023-02-17T14:44:44;99274.59;;;-4.49;59.76